createdAt,value
2018-07-14T00:02:07.424Z,10.60
2018-07-14T00:04:36.613Z,10.60
2018-07-14T00:07:05.850Z,10.60
2018-07-14T00:09:35.157Z,10.60
2018-07-14T00:12:04.315Z,10.60
2018-07-14T00:14:33.441Z,10.70
2018-07-14T00:17:02.605Z,10.80
2018-07-14T00:19:31.760Z,10.80
2018-07-14T00:22:00.917Z,10.70
2018-07-14T00:24:30.133Z,10.60
2018-07-14T00:26:59.404Z,10.60
2018-07-14T00:29:28.558Z,10.50
2018-07-14T00:31:57.929Z,10.50
2018-07-14T00:34:27.210Z,10.70
2018-07-14T00:36:56.676Z,10.70
2018-07-14T00:39:26.009Z,10.60
2018-07-14T00:41:55.265Z,10.50
2018-07-14T00:44:24.555Z,10.50
2018-07-14T00:46:53.692Z,10.50
2018-07-14T00:49:22.981Z,10.60
2018-07-14T00:51:52.321Z,10.50
2018-07-14T00:54:21.505Z,10.40
2018-07-14T00:56:50.645Z,10.30
2018-07-14T00:59:19.805Z,10.30
2018-07-14T01:01:48.939Z,10.30
2018-07-14T01:04:18.124Z,10.20
2018-07-14T01:06:47.368Z,10.10
2018-07-14T01:09:16.636Z,10.30
2018-07-14T01:11:45.826Z,10.20
2018-07-14T01:14:15.254Z,10.20
2018-07-14T01:16:44.465Z,10.20
2018-07-14T01:19:13.685Z,10.20
2018-07-14T01:21:42.945Z,10.10
2018-07-14T01:24:12.171Z,10.00
2018-07-14T01:26:44.041Z,10.00
2018-07-14T01:29:14.328Z,10.00
2018-07-14T01:31:43.569Z,10.10
2018-07-14T01:34:12.750Z,10.20
2018-07-14T01:36:41.936Z,10.20
2018-07-14T01:39:11.282Z,10.20
2018-07-14T01:41:40.527Z,10.10
2018-07-14T01:44:09.834Z,10.00
2018-07-14T01:46:39.021Z,9.90
2018-07-14T01:49:08.153Z,9.90
2018-07-14T01:51:37.484Z,9.90
2018-07-14T01:54:06.808Z,9.80
2018-07-14T01:56:35.985Z,9.80
2018-07-14T01:59:05.265Z,9.80
2018-07-14T02:01:34.433Z,9.90
2018-07-14T02:04:03.685Z,10.00
2018-07-14T02:06:32.953Z,10.00
2018-07-14T02:09:02.082Z,9.90
2018-07-14T02:11:32.261Z,9.80
2018-07-14T02:14:01.477Z,9.80
2018-07-14T02:16:30.704Z,9.70
2018-07-14T02:18:59.848Z,9.70
2018-07-14T02:21:28.994Z,9.80
2018-07-14T02:23:58.126Z,9.90
2018-07-14T02:26:27.348Z,10.00
2018-07-14T02:28:56.580Z,10.00
2018-07-14T02:31:25.985Z,9.90
2018-07-14T02:33:55.307Z,9.80
2018-07-14T02:36:24.558Z,9.70
2018-07-14T02:38:53.723Z,9.70
2018-07-14T02:41:23.186Z,9.80
2018-07-14T02:43:52.389Z,9.70
2018-07-14T02:46:21.725Z,9.70
2018-07-14T02:48:50.861Z,9.60
2018-07-14T02:51:20.054Z,9.60
2018-07-14T02:53:49.306Z,9.60
2018-07-14T02:56:18.495Z,9.60
2018-07-14T02:58:47.630Z,9.70
2018-07-14T03:01:16.865Z,9.80
2018-07-14T03:03:45.995Z,9.80
2018-07-14T03:06:15.352Z,9.80
2018-07-14T03:08:44.545Z,9.60
2018-07-14T03:11:13.715Z,9.60
2018-07-14T03:13:42.881Z,9.50
2018-07-14T03:16:12.232Z,9.60
2018-07-14T03:18:41.402Z,9.70
2018-07-14T03:21:10.747Z,9.60
2018-07-14T03:23:39.937Z,9.50
2018-07-14T03:26:09.232Z,9.40
2018-07-14T03:28:38.516Z,9.40
2018-07-14T03:31:07.703Z,9.40
2018-07-14T03:33:36.911Z,9.50
2018-07-14T03:36:06.046Z,9.60
2018-07-14T03:38:35.213Z,9.50
2018-07-14T03:41:04.551Z,9.50
2018-07-14T03:43:33.693Z,9.50
2018-07-14T03:46:03.462Z,9.50
2018-07-14T03:48:32.612Z,9.60
2018-07-14T03:51:01.938Z,9.70
2018-07-14T03:53:31.077Z,9.60
2018-07-14T03:56:00.446Z,9.60
2018-07-14T03:58:29.555Z,9.80
2018-07-14T04:00:59.728Z,9.80
2018-07-14T04:03:28.871Z,9.90
2018-07-14T04:05:58.076Z,9.90
2018-07-14T04:08:27.395Z,9.90
2018-07-14T04:10:56.544Z,9.90
2018-07-14T04:13:25.765Z,9.90
2018-07-14T04:15:54.909Z,9.90
2018-07-14T04:18:24.469Z,10.00
2018-07-14T04:20:53.763Z,10.10
2018-07-14T04:23:22.990Z,10.20
2018-07-14T04:25:52.165Z,10.30
2018-07-14T04:28:21.464Z,10.40
2018-07-14T04:30:50.709Z,10.40
2018-07-14T04:33:20.068Z,10.40
2018-07-14T04:35:49.249Z,10.40
2018-07-14T04:38:18.489Z,10.50
2018-07-14T04:40:47.682Z,10.60
2018-07-14T04:43:16.956Z,10.70
2018-07-14T04:45:46.168Z,10.70
2018-07-14T04:48:15.337Z,10.70
2018-07-14T04:50:44.559Z,10.80
2018-07-14T04:53:14.046Z,10.90
2018-07-14T04:55:43.183Z,10.90
2018-07-14T04:58:12.482Z,11.00
2018-07-14T05:00:42.017Z,11.10
2018-07-14T05:03:11.285Z,11.20
2018-07-14T05:05:40.517Z,11.40
2018-07-14T05:08:09.778Z,11.40
2018-07-14T05:10:38.937Z,11.50
2018-07-14T05:13:08.250Z,11.60
2018-07-14T05:15:37.583Z,11.70
2018-07-14T05:18:06.786Z,11.80
2018-07-14T05:20:36.073Z,11.90
2018-07-14T05:23:05.314Z,12.00
2018-07-14T05:25:34.516Z,12.10
2018-07-14T05:28:03.680Z,12.30
2018-07-14T05:30:32.875Z,12.50
2018-07-14T05:33:02.191Z,12.60
2018-07-14T05:35:31.386Z,12.70
2018-07-14T05:38:00.857Z,12.90
2018-07-14T05:40:30.211Z,13.10
2018-07-14T05:42:59.711Z,13.30
2018-07-14T05:45:29.002Z,13.50
2018-07-14T05:47:58.149Z,13.60
2018-07-14T05:50:27.489Z,13.80
2018-07-14T05:52:56.740Z,13.90
2018-07-14T05:55:25.933Z,14.10
2018-07-14T05:57:55.095Z,14.30
2018-07-14T06:00:24.329Z,14.40
2018-07-14T06:02:53.527Z,14.60
2018-07-14T06:05:22.764Z,14.80
2018-07-14T06:07:52.159Z,15.00
2018-07-14T06:12:50.146Z,15.30
2018-07-14T06:15:19.425Z,15.50
2018-07-14T06:17:48.920Z,15.60
2018-07-14T06:20:18.347Z,15.80
2018-07-14T06:22:47.620Z,16.00
2018-07-14T06:25:16.786Z,16.20
2018-07-14T06:27:45.953Z,16.30
2018-07-14T06:30:15.172Z,16.50
2018-07-14T06:32:44.444Z,16.70
2018-07-14T06:35:13.884Z,16.90
2018-07-14T06:37:43.220Z,17.00
2018-07-14T06:40:12.683Z,17.20
2018-07-14T06:42:41.847Z,17.40
2018-07-14T06:45:11.123Z,17.50
2018-07-14T06:47:40.309Z,17.70
2018-07-14T06:50:09.484Z,17.80
2018-07-14T06:52:38.719Z,17.90
2018-07-14T06:55:07.977Z,18.10
2018-07-14T06:57:37.146Z,18.20
2018-07-14T07:00:06.462Z,18.40
2018-07-14T07:02:35.646Z,18.60
2018-07-14T07:05:04.964Z,18.80
2018-07-14T07:07:34.213Z,19.00
2018-07-14T07:10:03.414Z,19.20
2018-07-14T07:12:32.660Z,19.40
2018-07-14T07:15:01.877Z,19.70
2018-07-14T07:17:31.077Z,20.00
2018-07-14T07:20:00.330Z,20.20
2018-07-14T07:22:29.510Z,20.30
2018-07-14T07:24:58.708Z,20.50
2018-07-14T07:27:28.256Z,20.90
2018-07-14T07:29:57.418Z,20.90
2018-07-14T07:32:26.704Z,20.80
2018-07-14T07:34:55.912Z,20.80
2018-07-14T07:37:25.117Z,20.70
2018-07-14T07:39:54.254Z,20.60
2018-07-14T07:42:23.536Z,20.40
2018-07-14T07:44:52.633Z,20.90
2018-07-14T07:47:21.838Z,21.50
2018-07-14T07:49:51.007Z,21.60
2018-07-14T07:52:20.205Z,22.00
2018-07-14T07:54:49.397Z,22.40
2018-07-14T07:57:18.581Z,23.00
2018-07-14T07:59:47.959Z,23.70
2018-07-14T08:02:17.178Z,24.40
2018-07-14T08:04:46.402Z,24.70
2018-07-14T08:07:15.556Z,24.50
2018-07-14T08:09:44.801Z,24.60
2018-07-14T08:12:14.037Z,24.10
2018-07-14T08:14:43.190Z,23.20
2018-07-14T08:17:12.424Z,22.70
2018-07-14T08:19:41.669Z,22.20
2018-07-14T08:22:10.951Z,21.70
2018-07-14T08:24:40.161Z,21.60
2018-07-14T08:27:09.369Z,21.70
2018-07-14T08:29:38.568Z,22.00
2018-07-14T08:32:08.125Z,22.30
2018-07-14T08:34:37.384Z,23.00
2018-07-14T08:37:06.828Z,23.00
2018-07-14T08:39:36.184Z,22.60
2018-07-14T08:42:05.375Z,22.30
2018-07-14T08:44:34.584Z,21.70
2018-07-14T08:47:03.797Z,21.90
2018-07-14T08:49:33.009Z,22.30
2018-07-14T08:52:02.279Z,22.80
2018-07-14T08:54:31.448Z,23.60
2018-07-14T08:57:00.634Z,24.70
2018-07-14T08:59:29.793Z,25.20
2018-07-14T09:01:59.074Z,24.70
2018-07-14T09:04:28.354Z,25.50
2018-07-14T09:06:57.593Z,25.50
2018-07-14T09:09:26.860Z,25.40
2018-07-14T09:11:56.116Z,24.40
2018-07-14T09:14:25.482Z,24.30
2018-07-14T09:16:54.804Z,24.40
2018-07-14T09:19:24.104Z,24.40
2018-07-14T09:21:53.406Z,24.10
2018-07-14T09:24:22.617Z,24.30
2018-07-14T09:26:51.993Z,24.70
2018-07-14T09:29:21.220Z,24.90
2018-07-14T09:31:50.481Z,24.50
2018-07-14T09:34:19.804Z,24.90
2018-07-14T09:36:50.080Z,25.10
2018-07-14T09:39:19.280Z,25.30
2018-07-14T09:41:48.893Z,25.60
2018-07-14T09:44:18.505Z,25.80
2018-07-14T09:46:47.642Z,26.00
2018-07-14T09:49:16.893Z,25.90
2018-07-14T09:51:46.198Z,26.00
2018-07-14T09:54:15.392Z,25.40
2018-07-14T09:56:44.588Z,24.70
2018-07-14T09:59:13.812Z,24.20
2018-07-14T10:01:42.948Z,23.30
2018-07-14T10:04:12.265Z,22.60
2018-07-14T10:06:41.426Z,22.30
2018-07-14T10:09:10.666Z,22.00
2018-07-14T10:11:39.836Z,21.90
2018-07-14T10:14:09.121Z,21.90
2018-07-14T10:16:38.284Z,22.10
2018-07-14T10:19:07.405Z,22.40
2018-07-14T10:21:36.563Z,23.00
2018-07-14T10:24:05.863Z,23.50
2018-07-14T10:29:03.976Z,24.40
2018-07-14T10:31:36.160Z,24.70
2018-07-14T10:34:06.863Z,24.80
2018-07-14T10:36:37.051Z,24.80
2018-07-14T10:39:07.560Z,24.60
2018-07-14T10:41:36.790Z,24.50
2018-07-14T10:44:05.992Z,24.30
2018-07-14T10:46:35.215Z,24.30
2018-07-14T10:49:04.374Z,24.40
2018-07-14T10:51:33.572Z,24.70
2018-07-14T10:54:02.762Z,24.60
2018-07-14T10:56:31.893Z,24.70
2018-07-14T10:59:01.101Z,25.00
2018-07-14T11:01:30.267Z,24.40
2018-07-14T11:03:59.663Z,24.00
2018-07-14T11:06:28.840Z,23.70
2018-07-14T11:08:57.964Z,23.60
2018-07-14T11:11:27.160Z,23.80
2018-07-14T11:13:56.361Z,24.10
2018-07-14T11:16:25.532Z,24.20
2018-07-14T11:18:54.723Z,24.50
2018-07-14T11:21:23.925Z,24.40
2018-07-14T11:23:53.144Z,24.10
2018-07-14T11:26:22.377Z,23.50
2018-07-14T11:28:51.625Z,23.60
2018-07-14T11:31:20.781Z,23.80
2018-07-14T11:33:49.906Z,23.60
2018-07-14T11:36:19.070Z,23.60
2018-07-14T11:38:48.221Z,23.60
2018-07-14T11:41:17.453Z,23.30
2018-07-14T11:43:46.653Z,23.50
2018-07-14T11:46:15.792Z,23.80
2018-07-14T11:48:44.979Z,24.30
2018-07-14T11:51:14.292Z,25.00
2018-07-14T11:53:43.496Z,24.70
2018-07-14T11:56:12.652Z,24.30
2018-07-14T11:58:41.909Z,23.70
2018-07-14T12:01:12.158Z,23.60
2018-07-14T12:03:41.417Z,23.40
2018-07-14T12:06:11.659Z,23.30
2018-07-14T12:08:41.106Z,23.10
2018-07-14T12:11:10.671Z,23.20
2018-07-14T12:13:39.860Z,23.20
2018-07-14T12:16:10.158Z,23.60
2018-07-14T12:18:39.416Z,23.70
2018-07-14T12:21:08.623Z,23.30
2018-07-14T12:23:37.806Z,23.10
2018-07-14T12:26:07.181Z,23.00
2018-07-14T12:28:36.320Z,23.30
2018-07-14T12:31:05.505Z,23.90
2018-07-14T12:33:34.677Z,24.20
2018-07-14T12:36:03.929Z,24.50
2018-07-14T12:38:34.076Z,24.90
